Time;durP1;ratioP1;P1;durP2;ratioP2;P2;SDS_P1;SDS_P2;PMS_P1;PMS_P2;Temp;Humidity;BMP_temperature;BMP_pressure;BME280_temperature;BME280_humidity;BME280_pressure;Samples;Min_cycle;Max_cycle;Signal;HPM_P1;HPM_P2
2021/10/13 00:01:08;;;;;;;34.08;20.90;;;10.40;65.10;;;;;;6093320;23;20342;-78
2021/10/13 00:03:34;;;;;;;31.70;20.05;;;10.40;65.00;;;;;;6093085;23;20015;-79
2021/10/13 00:06:00;;;;;;;24.17;19.50;;;10.40;65.40;;;;;;6093035;23;20414;-78
2021/10/13 00:08:28;;;;;;;30.67;19.85;;;10.40;65.40;;;;;;6093327;23;20009;-79
2021/10/13 00:10:54;;;;;;;30.35;20.20;;;10.40;65.30;;;;;;6093579;23;20009;-79
2021/10/13 00:13:20;;;;;;;26.63;20.02;;;10.40;65.40;;;;;;6093376;23;20422;-79
2021/10/13 00:15:46;;;;;;;26.95;19.73;;;10.50;65.30;;;;;;6093432;23;20005;-78
2021/10/13 00:18:14;;;;;;;25.83;20.23;;;10.50;65.40;;;;;;6093080;23;20056;-79
2021/10/13 00:20:40;;;;;;;29.65;20.83;;;10.50;65.70;;;;;;6094850;23;20081;-79
2021/10/13 00:23:05;;;;;;;28.67;20.90;;;10.50;66.20;;;;;;6096484;23;20444;-78
2021/10/13 00:25:31;;;;;;;25.65;18.27;;;10.50;65.40;;;;;;6093432;23;20510;-80
2021/10/13 00:27:57;;;;;;;28.67;18.73;;;10.50;65.30;;;;;;6093221;23;20006;-79
2021/10/13 00:30:25;;;;;;;26.27;19.30;;;10.50;65.30;;;;;;6093976;23;20068;-78
2021/10/13 00:32:51;;;;;;;26.15;18.80;;;10.50;65.60;;;;;;6093428;23;20563;-79
2021/10/13 00:35:20;;;;;;;33.05;18.83;;;10.50;65.40;;;;;;6092866;23;20002;-79
2021/10/13 00:37:46;;;;;;;28.45;19.27;;;10.50;65.30;;;;;;6093794;23;20057;-80
2021/10/13 00:40:12;;;;;;;28.27;21.08;;;10.50;65.40;;;;;;6092810;23;20011;-77
2021/10/13 00:42:37;;;;;;;28.63;19.88;;;10.40;65.60;;;;;;6093184;23;20003;-82
2021/10/13 00:45:06;;;;;;;31.45;19.23;;;10.50;65.80;;;;;;6093261;23;20494;-81
2021/10/13 00:47:36;;;;;;;30.35;17.60;;;10.50;65.90;;;;;;6067235;23;20010;-78
2021/10/13 00:50:09;;;;;;;31.38;20.45;;;10.50;65.70;;;;;;6092795;23;20010;-78
2021/10/13 00:52:39;;;;;;;23.77;17.38;;;10.50;65.60;;;;;;6067457;23;20441;-80
2021/10/13 00:55:06;;;;;;;27.60;19.02;;;10.40;65.70;;;;;;6092781;23;20001;-79
2021/10/13 00:57:32;;;;;;;;;;;10.40;65.60;;;;;;6093952;23;20011;-80
2021/10/13 00:59:58;;;;;;;31.90;18.98;;;10.40;65.30;;;;;;6092780;23;20342;-80
2021/10/13 01:02:31;;;;;;;32.78;18.92;;;10.40;65.90;;;;;;6093357;23;20030;-78
2021/10/13 01:05:07;;;;;;;26.40;17.70;;;10.40;66.00;;;;;;6093409;23;20015;-78
2021/10/13 01:07:38;;;;;;;25.27;17.15;;;10.30;66.00;;;;;;6067615;23;20003;-80
2021/10/13 01:10:13;;;;;;;25.48;17.38;;;10.40;66.60;;;;;;6092719;23;20002;-79
2021/10/13 01:12:52;;;;;;;28.05;19.30;;;10.40;66.00;;;;;;6092815;23;20006;-78
2021/10/13 01:15:40;;;;;;;23.98;17.88;;;10.40;66.00;;;;;;6093069;23;19998;-79
2021/10/13 01:18:22;;;;;;;24.25;17.60;;;10.40;66.10;;;;;;6067704;23;20060;-79
2021/10/13 01:21:13;;;;;;;24.63;16.65;;;10.40;66.10;;;;;;6092840;23;20375;-80
2021/10/13 01:23:54;;;;;;;27.70;18.33;;;10.40;66.10;;;;;;6092571;23;20493;-80
2021/10/13 01:26:34;;;;;;;26.85;17.73;;;10.30;66.10;;;;;;6092592;23;20002;-80
2021/10/13 01:29:05;;;;;;;26.83;18.30;;;10.40;66.20;;;;;;6092482;23;19999;-79
2021/10/13 01:31:57;;;;;;;24.63;17.90;;;10.40;66.30;;;;;;6092131;23;20010;-78
2021/10/13 01:34:32;;;;;;;26.90;17.48;;;10.40;66.40;;;;;;6092625;23;20056;-80
2021/10/13 01:37:09;;;;;;;26.20;17.00;;;10.40;66.50;;;;;;6092597;23;20501;-79
2021/10/13 01:39:42;;;;;;;24.38;17.30;;;10.30;66.60;;;;;;6092955;23;20003;-80
2021/10/13 01:42:10;;;;;;;27.38;17.40;;;10.40;66.70;;;;;;6092693;23;20002;-79
2021/10/13 01:44:38;;;;;;;26.60;18.02;;;10.40;66.50;;;;;;6092426;23;20007;-80
2021/10/13 01:47:06;;;;;;;27.45;17.33;;;10.40;66.70;;;;;;6092737;23;20005;-79
2021/10/13 01:49:37;;;;;;;23.98;17.77;;;10.40;66.60;;;;;;6093322;23;20002;-78
2021/10/13 01:52:04;;;;;;;25.58;18.08;;;10.40;66.70;;;;;;6093782;23;20010;-80
2021/10/13 01:54:31;;;;;;;24.23;17.50;;;10.40;66.60;;;;;;6094052;23;19998;-80
2021/10/13 01:57:01;;;;;;;26.95;17.20;;;10.40;66.60;;;;;;6093621;23;20006;-80
2021/10/13 01:59:29;;;;;;;27.10;18.13;;;10.40;66.70;;;;;;6067997;23;19999;-80
2021/10/13 02:02:01;;;;;;;29.08;18.75;;;10.30;66.90;;;;;;6093605;23;20109;-80
2021/10/13 02:04:28;;;;;;;32.92;18.95;;;10.40;67.00;;;;;;6093119;23;20448;-79
2021/10/13 02:06:55;;;;;;;38.33;19.85;;;10.40;67.30;;;;;;6093590;23;20002;-77
2021/10/13 02:09:24;;;;;;;30.02;18.75;;;10.30;67.30;;;;;;6093731;23;20520;-79
2021/10/13 02:11:51;;;;;;;28.58;18.13;;;10.30;67.40;;;;;;6093395;23;20053;-80
2021/10/13 02:14:19;;;;;;;28.58;20.30;;;10.30;67.70;;;;;;6093431;23;20079;-79
2021/10/13 02:16:51;;;;;;;27.98;18.65;;;10.30;67.80;;;;;;6067028;23;20093;-80
2021/10/13 02:19:22;;;;;;;26.73;17.85;;;10.30;67.90;;;;;;6068317;23;20009;-79
2021/10/13 02:21:53;;;;;;;28.48;17.95;;;10.30;67.90;;;;;;6093441;23;20434;-81
2021/10/13 02:24:28;;;;;;;27.70;17.63;;;10.30;68.10;;;;;;6093262;23;20023;-79
2021/10/13 02:27:05;;;;;;;24.92;17.35;;;10.30;68.40;;;;;;6094242;23;20434;-80
2021/10/13 02:29:31;;;;;;;34.33;18.45;;;10.30;68.30;;;;;;6098495;23;20006;-80
2021/10/13 02:31:57;;;;;;;26.35;17.52;;;10.30;68.40;;;;;;6098851;23;20001;-79
2021/10/13 02:34:26;;;;;;;24.90;16.23;;;10.30;68.40;;;;;;6101244;23;19999;-79
2021/10/13 02:36:54;;;;;;;24.25;16.63;;;10.30;68.30;;;;;;6097531;23;20111;-79
2021/10/13 02:39:20;;;;;;;25.50;17.02;;;10.30;68.30;;;;;;6094160;23;19998;-81
2021/10/13 02:41:46;;;;;;;23.05;15.45;;;10.30;68.30;;;;;;6093068;23;20006;-80
2021/10/13 02:44:12;;;;;;;28.60;16.10;;;10.30;68.20;;;;;;6092979;23;20018;-80
2021/10/13 02:46:53;;;;;;;31.08;17.02;;;10.30;68.90;;;;;;6093816;23;19995;-80
2021/10/13 02:49:39;;;;;;;23.52;17.00;;;10.30;68.20;;;;;;6093897;23;20006;-79
2021/10/13 02:52:26;;;;;;;23.55;15.55;;;10.30;68.30;;;;;;6064851;23;19999;-80
2021/10/13 02:55:05;;;;;;;22.35;14.38;;;10.30;68.40;;;;;;6065407;23;20007;-79
2021/10/13 02:57:35;;;;;;;24.60;15.00;;;10.30;68.30;;;;;;6064239;23;20003;-79
2021/10/13 03:00:05;;;;;;;23.75;15.98;;;10.30;68.30;;;;;;6064837;23;20007;-79
2021/10/13 03:05:38;;;;;;;21.33;14.17;;;10.30;68.50;;;;;;6067147;23;20025;-80
2021/10/13 03:08:07;;;;;;;24.63;14.20;;;10.20;68.70;;;;;;6066178;23;20010;-79
2021/10/13 03:10:34;;;;;;;27.17;15.98;;;10.20;68.90;;;;;;6066202;23;20027;-79
2021/10/13 03:13:02;;;;;;;25.88;14.90;;;10.10;69.50;;;;;;6066366;23;20010;-80
2021/10/13 03:15:32;;;;;;;25.45;15.30;;;10.10;69.80;;;;;;6064428;23;20009;-79
2021/10/13 03:17:59;;;;;;;22.83;15.77;;;10.10;69.80;;;;;;6064851;23;20003;-79
2021/10/13 03:20:28;;;;;;;19.77;14.50;;;10.10;69.90;;;;;;6066253;23;20081;-80
2021/10/13 03:22:58;;;;;;;23.67;15.35;;;10.10;69.70;;;;;;6067057;23;20003;-80
2021/10/13 03:25:26;;;;;;;24.75;14.25;;;10.10;69.90;;;;;;6069373;23;20007;-80
2021/10/13 03:27:52;;;;;;;33.67;16.85;;;10.10;69.70;;;;;;6065119;23;20054;-79
2021/10/13 03:30:18;;;;;;;24.88;15.40;;;10.10;69.50;;;;;;6064617;23;20015;-80
2021/10/13 03:32:51;;;;;;;24.23;15.82;;;10.10;69.60;;;;;;6064844;23;20006;-80
2021/10/13 03:35:31;;;;;;;21.67;14.90;;;10.10;69.70;;;;;;6039390;23;20090;-79
2021/10/13 03:38:02;;;;;;;24.85;16.00;;;10.10;69.70;;;;;;6064483;23;20052;-80
2021/10/13 03:40:29;;;;;;;25.77;15.40;;;10.00;69.70;;;;;;6064878;23;20018;-80
2021/10/13 03:42:55;;;;;;;22.95;15.55;;;10.00;69.80;;;;;;6064512;23;19998;-80
2021/10/13 03:45:23;;;;;;;22.83;14.93;;;10.00;70.10;;;;;;6064336;23;20022;-80
2021/10/13 03:47:50;;;;;;;31.17;15.88;;;9.90;70.20;;;;;;6039675;23;20006;-81
2021/10/13 03:50:17;;;;;;;24.60;15.48;;;10.00;70.20;;;;;;6065216;23;19999;-81
2021/10/13 03:52:43;;;;;;;22.63;14.32;;;9.90;70.30;;;;;;6064844;23;20005;-79
2021/10/13 03:55:12;;;;;;;23.63;15.80;;;9.90;70.40;;;;;;6038802;23;20007;-80
2021/10/13 03:57:38;;;;;;;22.17;13.73;;;9.90;70.40;;;;;;6064829;23;20010;-80
2021/10/13 04:00:06;;;;;;;24.05;14.35;;;9.90;70.50;;;;;;6064910;23;20007;-80
2021/10/13 04:02:35;;;;;;;;;;;9.90;70.50;;;;;;6064704;23;20003;-80
2021/10/13 04:05:01;;;;;;;22.15;14.45;;;9.90;70.10;;;;;;6064124;23;20239;-79
2021/10/13 04:07:28;;;;;;;21.00;14.10;;;9.90;70.90;;;;;;6064581;23;20397;-79
2021/10/13 04:09:54;;;;;;;24.98;14.35;;;10.00;70.60;;;;;;6064671;23;20338;-80
2021/10/13 04:12:20;;;;;;;22.27;15.02;;;9.90;70.40;;;;;;6039387;23;20037;-79
2021/10/13 04:14:46;;;;;;;22.10;14.48;;;10.00;70.40;;;;;;6064384;23;20319;-80
2021/10/13 04:17:12;;;;;;;21.35;13.95;;;10.10;70.20;;;;;;6039121;23;20014;-80
2021/10/13 04:19:38;;;;;;;27.63;13.93;;;10.10;70.00;;;;;;6064689;23;20011;-79
2021/10/13 04:22:04;;;;;;;22.52;15.35;;;10.10;70.00;;;;;;6064144;23;20444;-79
2021/10/13 04:24:30;;;;;;;23.60;14.30;;;10.20;70.00;;;;;;6064020;23;20015;-79
2021/10/13 04:26:56;;;;;;;20.67;13.55;;;10.20;70.60;;;;;;6064282;23;19999;-79
2021/10/13 04:29:22;;;;;;;25.65;14.48;;;10.20;69.80;;;;;;6064807;23;20341;-81
2021/10/13 04:31:48;;;;;;;20.70;15.07;;;10.20;69.90;;;;;;6065662;23;20006;-79
2021/10/13 04:34:14;;;;;;;21.05;14.43;;;10.20;69.80;;;;;;6041296;23;20011;-79
2021/10/13 04:36:40;;;;;;;25.65;14.30;;;10.20;69.70;;;;;;6072659;23;19998;-79
2021/10/13 04:39:06;;;;;;;24.75;15.45;;;10.20;69.80;;;;;;6066936;23;20006;-79
2021/10/13 04:41:33;;;;;;;24.38;14.75;;;10.20;69.80;;;;;;6064552;23;20025;-80
2021/10/13 04:43:59;;;;;;;23.67;14.45;;;10.20;69.90;;;;;;6063934;23;20295;-83
2021/10/13 04:46:25;;;;;;;23.25;13.48;;;10.30;69.90;;;;;;6064328;23;20003;-81
2021/10/13 04:48:51;;;;;;;21.83;14.02;;;10.30;70.50;;;;;;6064173;23;20338;-80
2021/10/13 04:51:17;;;;;;;20.33;13.52;;;10.30;70.50;;;;;;6064241;23;20074;-82
2021/10/13 04:53:43;;;;;;;23.23;13.98;;;10.40;69.70;;;;;;6064040;23;20013;-82
2021/10/13 04:56:09;;;;;;;19.30;14.20;;;10.40;69.30;;;;;;6064399;23;20003;-82
2021/10/13 04:58:43;;;;;;;24.10;14.73;;;10.30;69.60;;;;;;6064914;23;20053;-82
2021/10/13 05:01:09;;;;;;;21.55;14.73;;;10.30;69.50;;;;;;6064331;23;20003;-80
2021/10/13 05:03:35;;;;;;;21.10;13.45;;;10.30;69.50;;;;;;6064246;23;20011;-81
2021/10/13 05:06:01;;;;;;;22.08;14.35;;;10.30;69.90;;;;;;6064499;23;20038;-79
2021/10/13 05:08:26;;;;;;;19.13;13.50;;;10.30;69.60;;;;;;6063930;23;20007;-79
2021/10/13 05:10:52;;;;;;;20.17;13.43;;;10.30;69.40;;;;;;6064390;23;19999;-81
2021/10/13 05:13:21;;;;;;;25.63;13.43;;;10.40;69.50;;;;;;6064521;23;20003;-79
2021/10/13 05:15:47;;;;;;;21.85;13.90;;;10.20;70.00;;;;;;6064059;23;20089;-79
2021/10/13 05:18:13;;;;;;;20.40;14.13;;;10.20;70.10;;;;;;6064378;23;20430;-80
2021/10/13 05:20:39;;;;;;;21.73;14.40;;;10.20;69.90;;;;;;6038079;23;20038;-81
2021/10/13 05:23:05;;;;;;;22.52;14.23;;;10.20;69.90;;;;;;6064139;23;19995;-81
2021/10/13 05:25:31;;;;;;;24.83;14.00;;;10.20;70.00;;;;;;6065175;23;20018;-81
2021/10/13 05:27:57;;;;;;;24.52;14.40;;;10.20;69.90;;;;;;6063951;23;19995;-81
2021/10/13 05:30:23;;;;;;;21.65;13.27;;;10.00;70.40;;;;;;6064446;23;20014;-81
2021/10/13 05:32:48;;;;;;;26.40;13.77;;;9.90;71.00;;;;;;6064654;23;20003;-82
2021/10/13 05:35:14;;;;;;;21.52;13.50;;;9.80;71.60;;;;;;6064742;23;19995;-81
2021/10/13 05:37:40;;;;;;;30.65;14.45;;;9.80;72.40;;;;;;6063872;23;20064;-79
2021/10/13 05:40:06;;;;;;;28.13;14.60;;;9.70;73.30;;;;;;6064086;23;19999;-81
2021/10/13 05:42:32;;;;;;;22.63;14.43;;;9.60;74.00;;;;;;6038409;23;20041;-80
2021/10/13 05:44:58;;;;;;;27.55;14.45;;;9.50;74.40;;;;;;6064199;23;20007;-81
2021/10/13 05:47:24;;;;;;;25.58;15.38;;;9.40;75.60;;;;;;6063537;23;20010;-79
2021/10/13 05:49:50;;;;;;;23.10;16.50;;;9.30;76.50;;;;;;6063587;23;20312;-80
2021/10/13 05:52:17;;;;;;;26.00;14.93;;;9.20;77.60;;;;;;6040191;23;20469;-82
2021/10/13 05:54:43;;;;;;;22.85;16.77;;;9.20;78.20;;;;;;6043139;23;20010;-79
2021/10/13 05:57:09;;;;;;;30.15;16.85;;;9.10;79.00;;;;;;6067077;23;20065;-79
2021/10/13 05:59:37;;;;;;;23.40;14.18;;;9.00;80.00;;;;;;6064898;23;20054;-80
2021/10/13 06:02:04;;;;;;;31.55;16.52;;;8.90;80.90;;;;;;6064510;23;20006;-80
2021/10/13 06:04:29;;;;;;;32.88;15.90;;;8.90;82.50;;;;;;6064760;23;20021;-78
2021/10/13 06:06:55;;;;;;;27.38;16.67;;;8.90;82.90;;;;;;6064526;23;20030;-80
2021/10/13 06:09:21;;;;;;;24.15;16.38;;;8.80;83.20;;;;;;6064034;23;20034;-78
2021/10/13 06:11:47;;;;;;;28.48;17.33;;;8.70;84.00;;;;;;6064963;23;19999;-79
2021/10/13 06:14:13;;;;;;;33.70;17.92;;;8.70;84.70;;;;;;6064630;23;20010;-79
2021/10/13 06:16:38;;;;;;;26.20;16.90;;;8.70;85.20;;;;;;6066499;23;20069;-81
2021/10/13 06:19:04;;;;;;;26.65;17.35;;;8.80;85.40;;;;;;6064710;23;20003;-81
2021/10/13 06:21:31;;;;;;;27.48;18.67;;;9.00;85.50;;;;;;6037822;23;20346;-80
2021/10/13 06:23:57;;;;;;;26.90;18.65;;;9.10;85.60;;;;;;6062864;23;20022;-80
2021/10/13 06:26:22;;;;;;;25.92;18.40;;;9.20;85.60;;;;;;6063570;23;20003;-81
2021/10/13 06:28:49;;;;;;;24.92;16.52;;;9.30;85.60;;;;;;6063276;23;20003;-80
2021/10/13 06:31:15;;;;;;;28.70;17.92;;;9.50;85.20;;;;;;6063794;23;20003;-82
2021/10/13 06:33:41;;;;;;;32.80;19.83;;;9.60;85.00;;;;;;6064513;23;20327;-80
2021/10/13 06:36:07;;;;;;;28.33;17.95;;;9.70;84.50;;;;;;6065808;23;20007;-78
2021/10/13 06:38:34;;;;;;;24.80;20.20;;;9.70;84.30;;;;;;6064307;23;19999;-79
2021/10/13 06:41:01;;;;;;;27.40;19.00;;;9.90;84.50;;;;;;6066154;23;20027;-78
2021/10/13 06:43:27;;;;;;;33.83;19.83;;;10.10;84.10;;;;;;6064177;23;20014;-79
2021/10/13 06:45:53;;;;;;;27.30;17.92;;;10.30;83.20;;;;;;6064627;23;20026;-78
2021/10/13 06:48:20;;;;;;;36.40;19.38;;;10.50;82.30;;;;;;6064132;23;20003;-79
2021/10/13 06:50:46;;;;;;;30.05;19.75;;;10.70;80.70;;;;;;6064591;23;20394;-80
2021/10/13 06:53:12;;;;;;;25.75;16.63;;;10.80;80.10;;;;;;6067035;23;19999;-82
2021/10/13 06:55:38;;;;;;;37.47;19.48;;;10.80;79.10;;;;;;6066134;23;20074;-79
2021/10/13 06:58:05;;;;;;;29.87;18.13;;;10.90;79.00;;;;;;6038621;23;20438;-80
2021/10/13 07:00:31;;;;;;;26.60;19.30;;;11.00;78.90;;;;;;6038675;23;20241;-81
2021/10/13 07:02:57;;;;;;;25.77;18.58;;;11.10;78.80;;;;;;6063895;23;20010;-81
2021/10/13 07:05:23;;;;;;;33.35;20.35;;;11.20;77.90;;;;;;6064105;23;20430;-81
2021/10/13 07:07:50;;;;;;;29.58;18.88;;;11.30;78.30;;;;;;6064561;23;20010;-79
2021/10/13 07:10:17;;;;;;;27.98;18.15;;;11.20;76.60;;;;;;6064650;23;20334;-82
2021/10/13 07:12:43;;;;;;;25.77;17.02;;;11.20;76.10;;;;;;6064467;23;20101;-79
2021/10/13 07:15:12;;;;;;;27.17;15.40;;;11.30;75.80;;;;;;6064742;23;20077;-78
2021/10/13 07:17:38;;;;;;;31.30;18.95;;;11.30;75.40;;;;;;6039436;23;20015;-82
2021/10/13 07:20:06;;;;;;;24.35;17.17;;;11.40;74.90;;;;;;6064755;23;20014;-80
2021/10/13 07:22:35;;;;;;;25.38;16.45;;;11.60;74.70;;;;;;6064430;23;20058;-80
2021/10/13 07:25:01;;;;;;;28.50;18.38;;;11.80;73.60;;;;;;6063668;23;20084;-81
2021/10/13 07:27:28;;;;;;;28.13;16.85;;;12.00;73.40;;;;;;6064650;23;20381;-84
2021/10/13 07:30:01;;;;;;;28.13;18.70;;;12.10;72.60;;;;;;6064618;23;20082;-85
2021/10/13 07:32:30;;;;;;;28.13;17.33;;;12.40;71.50;;;;;;6064860;23;20006;-83
2021/10/13 07:34:56;;;;;;;23.55;17.92;;;12.50;71.50;;;;;;6064906;23;20029;-85
2021/10/13 07:37:22;;;;;;;30.98;16.13;;;12.60;71.00;;;;;;6040495;23;20003;-83
2021/10/13 07:39:48;;;;;;;32.50;17.00;;;12.60;70.10;;;;;;6066905;23;20014;-84
2021/10/13 07:42:15;;;;;;;32.25;16.30;;;12.50;69.80;;;;;;6042073;23;20466;-85
2021/10/13 07:44:42;;;;;;;25.85;16.52;;;12.20;69.60;;;;;;6069324;23;20015;-84
2021/10/13 07:47:08;;;;;;;31.13;19.02;;;12.00;70.50;;;;;;6066924;23;19995;-84
2021/10/13 07:49:35;;;;;;;28.13;15.68;;;12.10;70.90;;;;;;6040662;23;20537;-82
2021/10/13 07:52:01;;;;;;;28.23;17.65;;;12.20;70.50;;;;;;6064907;23;20060;-83
2021/10/13 07:54:30;;;;;;;27.75;16.40;;;12.20;70.70;;;;;;6065071;23;20007;-84
2021/10/13 07:56:56;;;;;;;26.58;17.73;;;12.20;70.80;;;;;;6064842;23;20102;-83
2021/10/13 07:59:21;;;;;;;25.23;16.48;;;12.20;70.70;;;;;;6040229;23;20011;-83
2021/10/13 08:01:47;;;;;;;29.90;18.27;;;12.20;70.80;;;;;;6065216;23;20003;-82
2021/10/13 08:04:13;;;;;;;28.90;17.88;;;12.20;70.80;;;;;;6039298;23;20078;-82
2021/10/13 08:06:39;;;;;;;28.95;17.60;;;12.20;70.80;;;;;;6039640;23;19999;-83
2021/10/13 08:09:05;;;;;;;26.95;16.30;;;12.20;70.30;;;;;;6040276;23;20035;-81
2021/10/13 08:11:31;;;;;;;27.48;16.65;;;12.20;70.30;;;;;;6065289;23;20018;-81
2021/10/13 08:13:58;;;;;;;34.28;19.00;;;12.10;69.60;;;;;;6065144;23;19999;-80
2021/10/13 08:16:24;;;;;;;28.13;16.88;;;12.20;70.80;;;;;;6065178;23;19999;-83
2021/10/13 08:18:50;;;;;;;34.10;18.83;;;12.30;70.30;;;;;;6065071;23;20138;-83
2021/10/13 08:21:16;;;;;;;25.88;17.90;;;12.30;69.80;;;;;;6040485;23;19998;-82
2021/10/13 08:23:42;;;;;;;28.65;17.73;;;12.50;69.70;;;;;;6064873;23;20085;-82
2021/10/13 08:26:08;;;;;;;29.50;17.17;;;12.70;68.80;;;;;;6064564;23;20003;-81
2021/10/13 08:28:35;;;;;;;29.13;18.42;;;12.90;68.30;;;;;;6064933;23;20449;-83
2021/10/13 08:31:01;;;;;;;29.02;17.65;;;13.00;67.60;;;;;;6065979;23;20003;-82
2021/10/13 08:33:27;;;;;;;30.50;17.10;;;13.10;67.80;;;;;;6066677;23;20018;-81
2021/10/13 08:35:53;;;;;;;27.67;18.35;;;13.20;67.10;;;;;;6066184;23;20026;-83
2021/10/13 08:38:19;;;;;;;31.30;19.02;;;13.50;67.10;;;;;;6065887;23;20010;-80
2021/10/13 08:40:44;;;;;;;27.55;17.67;;;13.80;66.60;;;;;;6065127;23;20003;-81
2021/10/13 08:43:10;;;;;;;31.67;18.42;;;14.00;65.00;;;;;;6071333;23;20003;-82
2021/10/13 08:45:38;;;;;;;30.17;18.05;;;13.90;64.40;;;;;;6067611;23;20025;-83
2021/10/13 08:48:05;;;;;;;30.73;17.45;;;13.90;65.50;;;;;;6065967;23;19999;-83
2021/10/13 08:50:38;;;;;;;27.92;19.30;;;14.00;65.40;;;;;;6065416;23;20434;-84
2021/10/13 08:53:13;;;;;;;35.25;18.92;;;14.10;65.30;;;;;;6066103;23;20075;-82
2021/10/13 08:55:41;;;;;;;29.20;18.55;;;14.30;65.20;;;;;;6039790;23;20010;-81
2021/10/13 08:58:07;;;;;;;28.35;16.38;;;14.20;64.00;;;;;;6066954;23;20456;-82
2021/10/13 09:00:36;;;;;;;35.35;18.58;;;14.20;64.10;;;;;;6040527;23;20401;-82
2021/10/13 09:03:01;;;;;;;33.33;17.58;;;14.50;64.10;;;;;;6064275;23;20030;-82
2021/10/13 09:05:27;;;;;;;33.10;18.92;;;14.80;62.90;;;;;;6063779;23;20494;-83
2021/10/13 09:07:56;;;;;;;29.02;18.67;;;15.50;62.10;;;;;;6064842;23;20006;-83
2021/10/13 09:10:30;;;;;;;32.25;18.90;;;17.10;59.50;;;;;;6064223;23;20032;-83
2021/10/13 09:12:57;;;;;;;27.55;16.88;;;18.80;55.00;;;;;;6065198;23;20007;-82
2021/10/13 09:15:26;;;;;;;26.00;17.58;;;19.50;50.90;;;;;;6068426;23;20003;-85
2021/10/13 09:18:03;;;;;;;26.63;16.48;;;19.40;50.70;;;;;;6064221;23;19999;-83
2021/10/13 09:20:32;;;;;;;29.98;17.70;;;19.80;50.30;;;;;;6064045;23;20003;-84
2021/10/13 09:23:16;;;;;;;26.48;17.67;;;21.00;49.00;;;;;;6038381;23;20007;-84
2021/10/13 09:26:02;;;;;;;26.40;17.58;;;22.20;47.00;;;;;;6064235;23;20394;-85
2021/10/13 09:28:30;;;;;;;31.80;16.50;;;22.70;44.80;;;;;;6039652;23;20027;-83
2021/10/13 09:30:55;;;;;;;26.83;16.85;;;23.10;43.80;;;;;;6067210;23;20011;-85
2021/10/13 09:33:21;;;;;;;26.73;17.15;;;23.60;43.00;;;;;;6046240;23;20461;-83
2021/10/13 09:35:56;;;;;;;27.33;16.42;;;24.20;41.90;;;;;;6041809;23;20007;-82
2021/10/13 09:38:24;;;;;;;27.55;16.88;;;24.00;40.40;;;;;;6064307;23;20410;-83
2021/10/13 09:40:58;;;;;;;31.92;16.88;;;24.00;41.30;;;;;;6038836;23;20075;-83
2021/10/13 09:43:31;;;;;;;24.73;17.00;;;24.80;40.20;;;;;;6064560;23;20065;-83
2021/10/13 09:46:12;;;;;;;28.90;17.38;;;25.20;39.00;;;;;;6064832;23;20496;-83
2021/10/13 09:48:44;;;;;;;24.42;17.30;;;25.40;39.50;;;;;;6064784;23;20144;-84
2021/10/13 09:51:27;;;;;;;24.67;16.05;;;25.50;39.00;;;;;;6065901;23;20449;-83
2021/10/13 09:53:54;;;;;;;28.17;16.25;;;24.50;39.30;;;;;;6038653;23;20499;-83
2021/10/13 09:56:37;;;;;;;22.75;16.88;;;24.60;39.60;;;;;;6064397;23;20026;-84
2021/10/13 09:59:15;;;;;;;24.05;16.02;;;25.30;39.00;;;;;;6065847;23;20034;-82
2021/10/13 10:01:44;;;;;;;31.17;17.98;;;25.80;38.60;;;;;;6063858;23;20022;-83
2021/10/13 10:04:30;;;;;;;28.70;17.38;;;25.80;37.30;;;;;;6063753;23;20135;-82
2021/10/13 10:06:58;;;;;;;31.00;19.73;;;26.10;37.80;;;;;;6065125;23;19999;-83
2021/10/13 10:09:26;;;;;;;30.67;18.83;;;25.50;37.80;;;;;;6065833;23;20230;-82
2021/10/13 10:12:08;;;;;;;32.08;18.73;;;24.40;38.30;;;;;;6066219;23;19998;-81
2021/10/13 10:14:35;;;;;;;25.35;18.13;;;23.00;40.60;;;;;;6066196;23;20397;-83
2021/10/13 10:17:04;;;;;;;30.58;19.65;;;21.80;42.50;;;;;;6066442;23;20003;-82
2021/10/13 10:19:37;;;;;;;30.48;19.63;;;20.80;44.10;;;;;;6067099;23;20287;-82
2021/10/13 10:22:18;;;;;;;37.08;19.70;;;19.80;46.00;;;;;;6067466;23;19999;-82
2021/10/13 10:24:53;;;;;;;32.08;20.85;;;18.90;48.40;;;;;;6065430;23;20014;-84
2021/10/13 10:27:36;;;;;;;32.95;19.63;;;18.20;50.00;;;;;;6065991;23;19999;-83
2021/10/13 10:30:08;;;;;;;35.45;20.13;;;17.70;51.70;;;;;;6066711;23;20006;-83
2021/10/13 10:32:42;;;;;;;27.20;20.85;;;17.30;52.60;;;;;;6066361;23;20398;-83
2021/10/13 10:35:12;;;;;;;30.05;19.48;;;17.00;53.40;;;;;;6065525;23;20426;-82
2021/10/13 10:37:49;;;;;;;30.65;19.60;;;16.80;53.90;;;;;;6065776;23;20053;-81
2021/10/13 10:40:33;;;;;;;27.60;18.73;;;16.40;54.90;;;;;;6066010;23;20006;-83
2021/10/13 10:43:19;;;;;;;28.95;19.33;;;16.20;55.50;;;;;;6067102;23;20007;-83
2021/10/13 10:45:49;;;;;;;35.60;20.67;;;15.90;56.80;;;;;;6066925;23;20010;-84
2021/10/13 10:48:18;;;;;;;28.58;19.00;;;15.80;58.00;;;;;;6069143;23;20086;-84
2021/10/13 10:50:51;;;;;;;26.30;18.80;;;15.80;58.80;;;;;;6073671;23;20007;-82
2021/10/13 10:53:36;;;;;;;23.67;16.10;;;15.70;58.60;;;;;;6066984;23;20006;-82
2021/10/13 10:56:27;;;;;;;30.10;17.90;;;15.70;58.90;;;;;;6067718;23;20003;-84
2021/10/13 10:59:09;;;;;;;23.63;17.25;;;15.60;59.80;;;;;;6041210;23;20011;-83
2021/10/13 11:01:36;;;;;;;24.60;17.38;;;15.40;61.00;;;;;;6065747;23;20070;-84
2021/10/13 11:04:07;;;;;;;25.08;17.10;;;15.50;61.10;;;;;;6065848;23;20022;-83
2021/10/13 11:06:38;;;;;;;26.23;17.20;;;15.70;60.70;;;;;;6044459;23;20003;-81
2021/10/13 11:09:08;;;;;;;35.15;18.23;;;15.90;60.30;;;;;;6069725;23;20007;-85
2021/10/13 11:11:49;;;;;;;21.52;14.95;;;15.90;60.20;;;;;;6067790;23;20027;-82
2021/10/13 11:14:21;;;;;;;32.28;16.88;;;15.90;60.50;;;;;;6070169;23;20038;-82
2021/10/13 11:17:03;;;;;;;27.75;16.35;;;15.70;61.10;;;;;;6066613;23;20073;-82
2021/10/13 11:19:31;;;;;;;22.10;15.98;;;15.80;61.20;;;;;;6066090;23;20438;-84
2021/10/13 11:22:04;;;;;;;21.10;14.25;;;15.70;61.70;;;;;;6040508;23;20010;-83
2021/10/13 11:24:35;;;;;;;19.60;13.70;;;15.50;62.00;;;;;;6064947;23;20034;-82
2021/10/13 11:27:02;;;;;;;21.55;14.50;;;15.40;62.80;;;;;;6065074;23;20014;-81
2021/10/13 11:29:31;;;;;;;25.42;15.68;;;15.30;63.40;;;;;;6064899;23;20003;-82
2021/10/13 11:32:08;;;;;;;23.45;15.27;;;15.20;63.80;;;;;;6066006;23;20009;-81
2021/10/13 11:34:34;;;;;;;;;;;15.40;63.70;;;;;;6066351;23;20007;-83
2021/10/13 11:37:00;;;;;;;27.95;17.70;;;15.50;62.70;;;;;;6067208;23;19933;-83
2021/10/13 11:39:29;;;;;;;25.13;16.65;;;15.60;62.90;;;;;;6068935;23;20303;-84
2021/10/13 11:41:56;;;;;;;34.03;16.23;;;15.60;62.70;;;;;;6066138;23;20434;-82
2021/10/13 11:44:23;;;;;;;25.42;16.58;;;15.70;62.60;;;;;;6068513;23;20022;-81
2021/10/13 11:47:08;;;;;;;32.53;16.40;;;15.80;62.40;;;;;;6065296;23;20011;-84
2021/10/13 11:49:56;;;;;;;31.33;17.38;;;15.80;62.10;;;;;;6064541;23;20006;-83
2021/10/13 11:52:22;;;;;;;28.50;16.35;;;15.80;62.40;;;;;;6065042;23;20014;-82
2021/10/13 11:55:00;;;;;;;24.70;14.65;;;15.70;63.00;;;;;;6039860;23;20031;-82
2021/10/13 11:57:25;;;;;;;28.60;16.20;;;15.70;63.70;;;;;;6065844;23;19999;-81
2021/10/13 12:00:14;;;;;;;24.88;15.82;;;15.50;63.10;;;;;;6039624;23;20010;-81
2021/10/13 12:02:41;;;;;;;23.80;14.85;;;15.50;63.00;;;;;;6064584;23;20007;-82
2021/10/13 12:05:08;;;;;;;;;;;15.40;63.20;;;;;;6040598;23;20046;-82
2021/10/13 12:07:44;;;;;;;26.70;14.70;;;15.30;62.80;;;;;;6066174;23;19902;-82
2021/10/13 12:10:11;;;;;;;32.67;16.67;;;15.30;63.30;;;;;;6065375;23;20030;-84
2021/10/13 12:12:37;;;;;;;;;;;15.20;64.00;;;;;;6041382;23;20434;-82
2021/10/13 12:15:20;;;;;;;29.67;16.65;;;15.20;63.40;;;;;;6066207;23;19932;-83
2021/10/13 12:17:46;;;;;;;24.67;15.80;;;15.10;64.20;;;;;;6065399;23;20003;-82
2021/10/13 12:20:20;;;;;;;25.73;15.35;;;15.10;65.10;;;;;;6064280;23;20026;-82
2021/10/13 12:22:51;;;;;;;21.63;15.10;;;15.20;64.50;;;;;;6064599;23;20034;-82
2021/10/13 12:25:28;;;;;;;22.83;15.57;;;15.20;64.10;;;;;;6068070;23;20027;-83
2021/10/13 12:27:57;;;;;;;22.75;15.13;;;15.20;64.00;;;;;;6065743;23;20007;-81
2021/10/13 12:30:34;;;;;;;24.17;15.70;;;15.20;64.30;;;;;;6065814;23;20055;-81
2021/10/13 12:33:18;;;;;;;23.95;15.15;;;15.20;63.80;;;;;;6039229;23;20037;-80
2021/10/13 12:35:46;;;;;;;33.50;17.30;;;15.10;64.00;;;;;;6064591;23;20034;-82
2021/10/13 12:38:15;;;;;;;24.58;15.98;;;15.10;64.40;;;;;;6039171;23;20378;-82
2021/10/13 12:41:03;;;;;;;23.08;15.30;;;15.00;64.10;;;;;;6064374;23;20007;-83
2021/10/13 12:43:38;;;;;;;29.33;17.25;;;15.00;64.10;;;;;;6065399;23;20011;-83
2021/10/13 12:46:28;;;;;;;26.00;15.65;;;15.00;64.60;;;;;;6064427;23;20003;-82